YBBNYKRY

Guest
Details From YBBN - Brisbane Intl
To YKRY - Kingaroy
Flight Number -
Tags generated
Created
Modified
Stats Distance 84 nm / 156 km
Max Altitude 8,100 ft / 2,469 m
Waypoints 3
Social Downloads 1
Likes 0
Share VATSIM

Download

Looking for another format? Having issues loading an existing format? Contact us
Advertisement - Login to hide

Notes

Basic altitude profile: - Ascent Rate: 1200ft/min - Ascent Speed: 250kts - Cruise Altitude: 60ft - Cruise Speed: 420kts - Descent Rate: 1200ft/min - Descent Speed: 250kts Options: - Use NATs: yes - Use PACOTS: yes - Use low airways: yes - Use high airways: yes

Route

YBBN WACKO YKRY

ID Type Via Altitude Latitude Longitude Leg Dist Tot Dist Heading (true) Name
O YBBN APT - 0 ft / 0 m -27.37571˚ 153.12771˚ - 0 nm - Brisbane Intl
WACKO FIX - 8,100 ft / 2,469 m -27.18806˚ 152.75306˚ 22 nm 22 nm 299° / 299° -
O YKRY APT - 0 ft / 0 m -26.58047˚ 151.83989˚ 61 nm 83 nm 307° / 307° Kingaroy

Altitude Profile

Advertisement - Login to hide

YBBN

Details ICAO YBBN (BNE)
Name Brisbane Intl
Region Australia
Timezone Australia/Brisbane (UTC+10.0)
Stats Elevation 12 ft / 4 m (AMSL)
Location -27.375714° 153.127710°
Runways 2
Magnetic Variation 10.987° E

METAR

YBBN 240830Z 00000KT CAVOK 19/14 Q1022 FM0930 19006KT 9999 SCT025 SCT050

Decode

TAF

TAF YBBN 240513Z 2406/2512 12009KT 9999 FEW040 FM241000 19006KT 9999 SCT025 SCT050 FM250200 15014KT 9999 -SHRA BKN030 FM250800 19008KT 9999 -SHRA BKN025 INTER 2506/2512 3000 SHRA BKN010

Decode

Departure Runways

ID Width Length Bearing (true) Bearing (mag) Surface Threshold Offset Overrun Length
01 148 ft / 45 m 11,805 ft / 3,598 m 26.93° 15.94° Asphalt 197 ft / 60 m 0 ft / 0 m
14 98 ft / 30 m 5,787 ft / 1,764 m 145.66° 134.67° Asphalt 197 ft / 60 m 0 ft / 0 m
19 148 ft / 45 m 11,805 ft / 3,598 m 206.92° 195.93° Asphalt 0 ft / 0 m 0 ft / 0 m
32 98 ft / 30 m 5,787 ft / 1,764 m 325.66° 314.67° Asphalt 197 ft / 60 m 0 ft / 0 m

YKRY

Details ICAO YKRY
Name Kingaroy
Region Australia
Timezone Australia/Brisbane (UTC+10.0)
Stats Elevation 1,492 ft / 455 m (AMSL)
Location -26.580469° 151.839888°
Runways 3
Magnetic Variation 10.396° E

METAR

YKRY 240800Z AUTO 13005KT 9999 // NCD 17/10 Q1022

Decode

TAF

Not found

Destination Runways

ID Width Length Bearing (true) Bearing (mag) Surface Threshold Offset Overrun Length
05 203 ft / 62 m 4,718 ft / 1,438 m 65.23° 54.83° Grass 0 ft / 0 m 0 ft / 0 m
16 98 ft / 30 m 5,274 ft / 1,608 m 169.15° 158.75° Asphalt 0 ft / 0 m 0 ft / 0 m
16R 102 ft / 31 m 3,553 ft / 1,083 m 168.38° 157.98° Grass 0 ft / 0 m 0 ft / 0 m
23 203 ft / 62 m 4,718 ft / 1,438 m 245.22° 234.82° Grass 0 ft / 0 m 0 ft / 0 m
34 98 ft / 30 m 5,274 ft / 1,608 m 349.15° 338.75° Asphalt 0 ft / 0 m 0 ft / 0 m
34L 102 ft / 31 m 3,553 ft / 1,083 m 348.38° 337.98° Grass 0 ft / 0 m 0 ft / 0 m